Airfield :
LOGIN :

Register | Disclaimer

   EN    FR    IT 

 










Legend :    VFR   Marginal VFR   IFR   Intensive IFR   Very Intensive IFR
Visi :
Ceiling :
>= 8 km
>= 3000ft
5 to 8 km
1000 to 3000 ft
1500m to 5 km
500 to 1000 ft
800 to 1500m
200 to 500 ft
< 800m
< 200 ft
Symbols :   Thunderstorms  Fog  Heavy snow  Heavy precipitations  Wind > 20 kt
SIGMETs :     Misc.  Thunderstorms  Icing  Turbulence  Mountain Waves  Volcanic Ashes






- Airport Elevation : 352 ft
- IATA code : KSD


ESOK - Karlstad

CURRENT METAR :
  • 060850Z AUTO 21020KT 9999 R03/P1500N R21///// ////// 14/10 Q0988

EXPIRED METARs :
  • 060820Z AUTO 21019KT 9999 R03/P1500N R21///// ////// 14/10 Q0988
  • 060750Z AUTO 22020KT 9999 R03/P1500N R21///// ////// 13/09 Q0987
  • 060720Z AUTO 22019KT 9999 R03/P1500N R21///// ////// 13/10 Q0987
  • 060650Z AUTO 22017KT 9999 R03/P1500N R21///// ////// 14/09 Q0987
  • 060620Z AUTO 21017KT 9999 R03/P1500N R21///// ////// 13/09 Q0987

Expired Forecast.



MET'MAP, your aeronautical weather chart ! - Copyright ORBIFLY December 2007 - Disclaimer

ORBIFLY MET'MAP TEAM :

Programming & Development : Alexandra Zaïnal
Concept & original design : Baudouin d'Aumeries
Assistance for programming : Marc-Olivier Méhu
Technical & hardware support : Manuel Goepfert

Contact : metmap@orbifly.com




SOURCES & CREDITS :

   NOAA